Time;durP1;ratioP1;P1;durP2;ratioP2;P2;SDS_P1;SDS_P2;PMS_P1;PMS_P2;Temp;Humidity;BMP_temperature;BMP_pressure;BME280_temperature;BME280_humidity;BME280_pressure;Samples;Min_cycle;Max_cycle;Signal;HPM_P1;HPM_P2
2021/07/27 00:01:17;;;;;;;15.15;13.75;;;31.90;70.10;;;;;;5102572;28;20054;-38
2021/07/27 00:03:43;;;;;;;14.48;13.18;;;31.90;70.00;;;;;;5102687;28;20032;-43
2021/07/27 00:06:10;;;;;;;14.65;13.25;;;31.90;70.00;;;;;;5102761;28;20021;-43
2021/07/27 00:08:36;;;;;;;13.90;12.50;;;31.90;70.10;;;;;;5102659;28;20131;-41
2021/07/27 00:11:04;;;;;;;14.05;12.75;;;31.90;70.00;;;;;;5102427;28;20736;-42
2021/07/27 00:13:30;;;;;;;14.40;13.10;;;31.90;70.10;;;;;;5102882;28;20136;-42
2021/07/27 00:15:56;;;;;;;14.00;12.60;;;31.90;70.00;;;;;;5102640;28;20039;-42
2021/07/27 00:18:22;;;;;;;13.70;12.40;;;31.80;70.00;;;;;;5102623;28;20111;-41
2021/07/27 00:20:48;;;;;;;14.07;12.77;;;31.80;70.10;;;;;;5102553;28;20028;-42
2021/07/27 00:23:15;;;;;;;14.32;13.02;;;31.80;70.20;;;;;;5101964;28;20069;-42
2021/07/27 00:25:42;;;;;;;13.85;12.55;;;31.80;70.10;;;;;;5105861;28;20038;-42
2021/07/27 00:28:09;;;;;;;13.57;12.32;;;31.80;70.10;;;;;;5106706;28;20025;-42
2021/07/27 00:30:35;;;;;;;14.73;13.32;;;31.70;70.10;;;;;;5106742;28;20039;-42
2021/07/27 00:33:01;;;;;;;13.93;12.63;;;31.70;70.00;;;;;;5106354;28;20048;-43
2021/07/27 00:35:29;;;;;;;14.68;13.18;;;31.70;70.10;;;;;;5106616;28;20044;-43
2021/07/27 00:38:18;;;;;;;13.52;12.13;;;31.70;70.10;;;;;;5106607;28;20028;-43
2021/07/27 00:40:45;;;;;;;14.23;12.82;;;31.70;70.10;;;;;;5106658;28;20121;-44
2021/07/27 00:43:13;;;;;;;13.57;12.38;;;31.70;70.00;;;;;;5106238;28;20073;-42
2021/07/27 00:45:40;;;;;;;12.90;11.70;;;31.60;70.00;;;;;;5106412;28;20028;-43
2021/07/27 00:48:06;;;;;;;13.45;12.15;;;31.60;70.00;;;;;;5106600;28;20024;-42
2021/07/27 00:50:32;;;;;;;12.50;11.30;;;31.60;70.00;;;;;;5106326;28;20095;-42
2021/07/27 00:53:00;;;;;;;12.60;11.35;;;31.60;70.00;;;;;;5106116;28;20500;-42
2021/07/27 00:55:26;;;;;;;13.27;11.80;;;31.60;70.00;;;;;;5106271;28;20062;-42
2021/07/27 00:57:52;;;;;;;12.55;11.35;;;31.60;70.00;;;;;;5087807;28;20110;-42
2021/07/27 01:00:21;;;;;;;11.85;10.73;;;31.60;70.00;;;;;;5105514;28;20658;-42
2021/07/27 01:02:47;;;;;;;12.65;11.38;;;31.60;70.10;;;;;;5105867;28;20623;-42
2021/07/27 01:05:14;;;;;;;12.90;11.52;;;31.50;69.90;;;;;;5105873;28;20024;-42
2021/07/27 01:07:41;;;;;;;12.30;11.10;;;31.50;70.00;;;;;;5087187;28;20056;-42
2021/07/27 01:10:08;;;;;;;11.45;10.32;;;31.50;70.00;;;;;;5085578;28;20473;-42
2021/07/27 01:12:35;;;;;;;11.50;10.40;;;31.40;69.90;;;;;;5085307;28;20036;-42
2021/07/27 01:15:02;;;;;;;;;;;31.40;69.80;;;;;;5085973;28;20092;-42
2021/07/27 01:17:28;;;;;;;12.35;9.70;;;31.40;69.90;;;;;;5085519;28;19908;-42
2021/07/27 01:45:12;;;;;;;5.13;4.38;;;30.70;62.90;;;;;;4997752;28;20069;-42
2021/07/27 01:47:38;;;;;;;4.78;4.00;;;30.70;62.20;;;;;;4988990;28;20040;-42
2021/07/27 01:50:05;;;;;;;5.25;3.90;;;30.50;61.90;;;;;;4995979;28;20098;-42
2021/07/27 01:52:31;;;;;;;4.80;4.30;;;30.50;61.50;;;;;;4991519;28;20078;-42
2021/07/27 01:54:57;;;;;;;4.10;3.70;;;30.40;61.10;;;;;;4984661;28;20030;-42
2021/07/27 01:57:26;;;;;;;4.80;3.67;;;30.30;61.00;;;;;;4997692;28;20034;-42
2021/07/27 01:59:58;;;;;;;3.63;3.33;;;30.20;60.20;;;;;;4986383;28;20050;-43
2021/07/27 02:02:24;;;;;;;3.72;3.40;;;30.20;60.40;;;;;;4986031;28;20119;-42
2021/07/27 02:04:53;;;;;;;3.65;3.35;;;30.10;60.30;;;;;;4995250;28;20110;-42
2021/07/27 02:07:19;;;;;;;4.35;3.28;;;30.00;59.80;;;;;;4987361;28;20030;-42
2021/07/27 02:09:47;;;;;;;3.88;3.45;;;29.90;59.60;;;;;;4994614;28;20049;-42
2021/07/27 02:12:18;;;;;;;3.53;3.22;;;29.90;59.40;;;;;;4987160;28;20035;-42
2021/07/27 02:17:47;;;;;;;3.30;3.03;;;29.70;59.40;;;;;;5033442;28;20068;-42
2021/07/27 02:20:16;;;;;;;3.40;3.10;;;29.60;58.90;;;;;;5041321;28;20026;-42
2021/07/27 02:22:43;;;;;;;2.92;2.63;;;29.50;58.80;;;;;;5038490;28;20119;-42
2021/07/27 02:25:10;;;;;;;3.08;2.78;;;29.50;58.80;;;;;;5044544;28;20052;-42
2021/07/27 02:27:36;;;;;;;;;;;29.40;58.70;;;;;;5041556;28;20070;-42
2021/07/27 02:30:03;;;;;;;2.83;2.50;;;29.30;58.50;;;;;;5041714;28;19912;-43
2021/07/27 02:32:29;;;;;;;2.60;2.40;;;29.30;58.30;;;;;;5061501;28;20032;-42
2021/07/27 02:34:55;;;;;;;2.73;2.47;;;29.20;58.60;;;;;;5061265;28;20052;-42
2021/07/27 02:37:21;;;;;;;2.77;2.50;;;29.10;58.50;;;;;;5045009;28;20266;-42
2021/07/27 02:39:47;;;;;;;2.60;2.40;;;29.00;58.50;;;;;;5040058;28;20064;-43
2021/07/27 02:42:14;;;;;;;2.83;2.63;;;29.00;58.70;;;;;;5042725;28;20096;-42
2021/07/27 02:44:40;;;;;;;2.37;2.17;;;28.90;58.30;;;;;;5052700;28;20258;-42
2021/07/27 02:47:06;;;;;;;2.27;2.07;;;28.90;58.50;;;;;;5051169;28;20095;-42
2021/07/27 02:49:32;;;;;;;2.50;2.30;;;28.80;58.20;;;;;;5047151;28;20044;-42
2021/07/27 02:51:58;;;;;;;2.57;2.00;;;28.80;58.40;;;;;;5057562;28;20274;-42
2021/07/27 02:54:24;;;;;;;2.00;1.80;;;28.70;58.20;;;;;;5098876;28;20056;-43
2021/07/27 02:56:50;;;;;;;2.23;2.03;;;28.70;58.30;;;;;;5103483;28;20280;-42
2021/07/27 02:59:17;;;;;;;1.90;1.80;;;28.60;58.10;;;;;;5103091;28;20024;-43
2021/07/27 03:01:46;;;;;;;2.50;1.90;;;28.50;58.60;;;;;;5103352;28;20066;-42
2021/07/27 03:04:12;;;;;;;1.88;1.70;;;28.50;58.00;;;;;;5103458;28;20272;-42
2021/07/27 03:06:39;;;;;;;2.30;2.10;;;28.40;58.20;;;;;;5103471;28;20570;-42
2021/07/27 03:09:15;;;;;;;;;;;28.40;57.90;;;;;;5103155;28;20035;-42
2021/07/27 03:11:41;;;;;;;2.67;1.80;;;28.30;58.00;;;;;;5103222;28;19908;-41
2021/07/27 03:14:07;;;;;;;1.92;1.58;;;28.20;57.90;;;;;;5102834;28;20028;-43
2021/07/27 03:16:33;;;;;;;1.83;1.70;;;28.10;57.60;;;;;;5102884;28;20035;-42
2021/07/27 03:19:00;;;;;;;2.27;1.80;;;28.10;57.70;;;;;;5101818;28;20077;-42
2021/07/27 03:21:26;;;;;;;2.00;1.80;;;28.00;57.90;;;;;;5103018;28;20025;-44
2021/07/27 03:23:53;;;;;;;1.92;1.63;;;27.90;57.70;;;;;;5103203;28;20028;-42
2021/07/27 03:26:20;;;;;;;1.90;1.80;;;27.90;57.80;;;;;;5102080;28;20028;-42
2021/07/27 03:28:46;;;;;;;;;;;27.80;57.50;;;;;;5103144;28;20028;-42
2021/07/27 03:31:12;;;;;;;1.75;1.65;;;27.80;57.80;;;;;;5102763;28;19969;-42
2021/07/27 03:33:39;;;;;;;1.90;1.65;;;27.70;57.60;;;;;;5103224;28;20407;-43
2021/07/27 03:36:05;;;;;;;2.15;1.92;;;27.70;57.50;;;;;;5102600;28;20574;-42
2021/07/27 03:38:32;;;;;;;1.42;1.27;;;27.60;57.50;;;;;;5103025;28;20028;-42
2021/07/27 03:41:08;;;;;;;;;;;27.60;57.70;;;;;;5085574;28;20035;-42
2021/07/27 03:43:34;;;;;;;1.73;1.63;;;27.60;57.60;;;;;;5103059;28;19953;-43
2021/07/27 03:46:00;;;;;;;1.55;1.45;;;27.50;57.60;;;;;;5102751;28;20024;-41
2021/07/27 03:48:26;;;;;;;1.73;1.50;;;27.40;58.20;;;;;;5102354;28;20035;-41
2021/07/27 03:50:52;;;;;;;1.47;1.37;;;27.40;57.60;;;;;;5101714;28;20024;-42
2021/07/27 03:53:25;;;;;;;1.40;1.30;;;27.30;57.70;;;;;;5102091;28;20272;-42
2021/07/27 03:55:52;;;;;;;1.55;1.45;;;27.30;57.50;;;;;;5102776;28;20040;-42
2021/07/27 03:58:18;;;;;;;;;;;27.30;57.70;;;;;;5102611;28;20027;-43
2021/07/27 04:00:44;;;;;;;1.45;1.35;;;27.20;57.80;;;;;;5101171;28;19942;-42
2021/07/27 04:03:14;;;;;;;1.87;1.33;;;27.10;57.40;;;;;;5101482;28;20034;-42
2021/07/27 04:05:46;;;;;;;1.30;1.20;;;27.10;57.50;;;;;;5102623;28;20023;-42
2021/07/27 04:08:13;;;;;;;1.40;1.30;;;27.00;57.40;;;;;;5083975;28;20060;-41
2021/07/27 04:10:39;;;;;;;1.60;1.50;;;27.00;57.40;;;;;;5102645;28;20020;-42
2021/07/27 04:13:05;;;;;;;1.40;1.27;;;26.90;57.40;;;;;;5102516;28;20100;-43
2021/07/27 04:15:31;;;;;;;1.60;1.50;;;26.90;57.30;;;;;;5102870;28;20113;-42
2021/07/27 04:17:57;;;;;;;1.50;1.20;;;26.80;57.40;;;;;;5102314;28;20032;-42
2021/07/27 04:20:23;;;;;;;1.63;1.52;;;26.80;57.50;;;;;;5102754;28;20120;-42
2021/07/27 04:22:50;;;;;;;1.30;1.20;;;26.70;57.30;;;;;;5101958;28;20020;-42
2021/07/27 04:25:16;;;;;;;1.47;1.00;;;26.70;57.30;;;;;;5100603;28;20045;-43
2021/07/27 04:27:42;;;;;;;1.13;1.03;;;26.60;57.40;;;;;;5081958;28;20900;-42
2021/07/27 04:30:08;;;;;;;1.20;1.10;;;26.60;57.40;;;;;;5090481;28;20025;-44
2021/07/27 04:32:34;;;;;;;1.60;1.33;;;26.60;57.30;;;;;;5102142;28;20099;-42
2021/07/27 04:35:01;;;;;;;1.60;1.08;;;26.50;57.40;;;;;;5102128;28;20032;-42
2021/07/27 04:37:27;;;;;;;1.00;0.90;;;26.50;57.40;;;;;;5101587;28;20043;-42
2021/07/27 04:39:53;;;;;;;1.30;1.13;;;26.40;57.20;;;;;;5102366;28;20036;-42
2021/07/27 04:42:19;;;;;;;1.10;1.00;;;26.40;57.40;;;;;;5101991;28;20040;-42
2021/07/27 04:44:45;;;;;;;1.70;1.60;;;26.40;57.30;;;;;;5102435;28;20028;-42
2021/07/27 04:47:12;;;;;;;1.10;1.00;;;26.30;57.20;;;;;;5100893;28;20783;-42
2021/07/27 04:49:38;;;;;;;1.27;1.17;;;26.30;57.30;;;;;;5100593;28;20024;-42
2021/07/27 04:52:04;;;;;;;1.13;1.00;;;26.20;57.30;;;;;;5102069;28;20054;-43
2021/07/27 04:54:41;;;;;;;1.13;1.02;;;26.20;57.30;;;;;;5100972;28;20583;-42
2021/07/27 04:57:10;;;;;;;1.40;1.08;;;26.10;57.40;;;;;;5101370;28;20048;-43
2021/07/27 04:59:36;;;;;;;1.35;1.10;;;26.10;57.30;;;;;;5101216;28;20135;-43
2021/07/27 05:02:03;;;;;;;1.40;1.30;;;26.00;57.20;;;;;;5099573;28;20067;-42
2021/07/27 05:04:30;;;;;;;1.52;1.30;;;26.00;57.20;;;;;;5101116;28;20028;-42
2021/07/27 05:06:56;;;;;;;1.20;0.93;;;25.90;57.20;;;;;;5101087;28;20030;-42
2021/07/27 05:09:24;;;;;;;1.60;0.95;;;25.90;57.10;;;;;;5100313;28;20065;-43
2021/07/27 05:11:50;;;;;;;1.15;1.05;;;25.80;57.20;;;;;;5104757;28;20033;-42
2021/07/27 05:14:16;;;;;;;1.30;1.20;;;25.80;57.30;;;;;;5105723;28;20077;-42
2021/07/27 05:16:42;;;;;;;1.63;1.10;;;25.80;57.30;;;;;;5105273;28;20020;-42
2021/07/27 05:19:08;;;;;;;1.13;1.00;;;25.70;57.20;;;;;;5105120;28;20276;-42
2021/07/27 05:21:35;;;;;;;1.17;1.02;;;25.70;57.30;;;;;;5105024;28;20116;-42
2021/07/27 05:24:02;;;;;;;1.45;1.10;;;25.60;57.30;;;;;;5105371;28;20028;-41
2021/07/27 05:26:28;;;;;;;1.40;1.20;;;25.60;57.30;;;;;;5098032;28;20032;-43
2021/07/27 05:28:54;;;;;;;1.30;1.20;;;25.60;57.40;;;;;;5104542;28;20124;-41
2021/07/27 05:31:26;;;;;;;1.40;1.20;;;25.60;57.50;;;;;;5105072;28;20023;-43
2021/07/27 05:33:52;;;;;;;1.55;1.00;;;25.50;57.20;;;;;;5105252;28;20028;-42
2021/07/27 05:36:19;;;;;;;1.10;1.00;;;25.50;57.20;;;;;;5104707;28;20040;-43
2021/07/27 05:38:45;;;;;;;1.10;1.00;;;25.40;57.30;;;;;;5104925;28;20388;-43
2021/07/27 05:41:11;;;;;;;1.00;0.95;;;25.40;57.40;;;;;;5105168;28;20020;-42
2021/07/27 05:43:37;;;;;;;1.20;1.10;;;25.40;57.30;;;;;;5104571;28;20050;-43
2021/07/27 05:46:06;;;;;;;1.10;0.93;;;25.30;57.30;;;;;;5104849;28;20040;-42
2021/07/27 05:48:32;;;;;;;1.05;0.95;;;25.30;57.30;;;;;;5104648;28;20049;-42
2021/07/27 05:50:59;;;;;;;1.70;1.20;;;25.20;57.30;;;;;;5104951;28;20059;-42
2021/07/27 05:53:25;;;;;;;1.10;1.00;;;25.20;57.40;;;;;;5104731;28;20020;-42
2021/07/27 05:55:51;;;;;;;1.20;1.10;;;25.20;57.30;;;;;;5104370;28;20036;-43
2021/07/27 05:58:17;;;;;;;1.58;1.27;;;25.10;57.30;;;;;;5103991;28;20028;-42
2021/07/27 06:00:43;;;;;;;1.80;1.15;;;25.10;57.30;;;;;;5103325;28;20047;-42
2021/07/27 06:03:12;;;;;;;1.50;1.40;;;25.10;57.30;;;;;;5104604;28;20028;-41
2021/07/27 06:05:38;;;;;;;1.20;1.10;;;25.00;57.40;;;;;;5103725;28;20028;-42
2021/07/27 06:08:04;;;;;;;0.93;0.82;;;25.00;57.50;;;;;;5103330;28;20028;-41
2021/07/27 06:10:31;;;;;;;1.42;1.10;;;24.90;57.40;;;;;;5102592;28;20763;-42
2021/07/27 06:12:57;;;;;;;1.20;1.10;;;24.90;57.50;;;;;;5104329;28;20052;-41
2021/07/27 06:15:23;;;;;;;1.48;1.30;;;24.90;57.50;;;;;;5104158;28;20036;-42
2021/07/27 06:17:49;;;;;;;1.15;1.05;;;24.90;58.00;;;;;;5103862;28;20052;-42
2021/07/27 06:20:15;;;;;;;1.25;1.13;;;24.80;57.40;;;;;;5104077;28;20059;-42
2021/07/27 06:22:42;;;;;;;1.23;0.97;;;24.80;57.40;;;;;;5103148;28;20044;-42
2021/07/27 06:25:11;;;;;;;1.30;1.20;;;24.80;57.40;;;;;;5103304;28;20245;-41
2021/07/27 06:27:38;;;;;;;1.25;1.08;;;24.70;57.30;;;;;;5097955;28;20016;-41
2021/07/27 06:30:06;;;;;;;0.80;0.80;;;24.70;57.50;;;;;;5103423;28;20106;-42
2021/07/27 06:32:32;;;;;;;1.20;1.02;;;24.60;57.40;;;;;;5104258;28;20089;-42
2021/07/27 06:34:59;;;;;;;1.40;1.05;;;24.60;57.50;;;;;;5103212;28;20052;-42
2021/07/27 06:37:25;;;;;;;1.02;0.93;;;24.50;57.30;;;;;;5104242;28;20020;-42
2021/07/27 06:39:51;;;;;;;1.33;0.93;;;24.50;57.30;;;;;;5104034;28;20083;-42
2021/07/27 06:42:17;;;;;;;1.10;1.00;;;24.50;57.40;;;;;;5104006;28;20029;-42
2021/07/27 06:44:44;;;;;;;1.00;0.90;;;24.50;57.40;;;;;;5103854;28;20385;-42
2021/07/27 06:47:10;;;;;;;1.05;0.95;;;24.40;57.40;;;;;;5103969;28;20058;-43
2021/07/27 06:49:36;;;;;;;1.38;1.25;;;24.40;57.40;;;;;;5103744;28;20028;-42
2021/07/27 06:52:02;;;;;;;1.35;1.00;;;24.30;57.30;;;;;;5103950;28;20761;-42
2021/07/27 06:54:29;;;;;;;1.85;0.95;;;24.30;57.40;;;;;;5103405;28;20460;-44
2021/07/27 06:56:56;;;;;;;1.00;0.93;;;24.30;57.40;;;;;;5103868;28;20104;-43
2021/07/27 06:59:25;;;;;;;1.13;0.95;;;24.30;57.40;;;;;;5103127;28;20036;-43
2021/07/27 07:01:51;;;;;;;1.35;1.05;;;24.20;57.60;;;;;;5089779;28;20114;-41
2021/07/27 07:04:18;;;;;;;1.30;1.15;;;24.20;57.40;;;;;;5111476;28;20024;-43
2021/07/27 07:06:46;;;;;;;0.98;0.75;;;24.20;57.50;;;;;;5101470;28;20162;-43
2021/07/27 07:09:12;;;;;;;1.23;0.90;;;24.10;57.50;;;;;;5102944;28;20024;-42
2021/07/27 07:11:38;;;;;;;1.02;0.93;;;24.00;57.40;;;;;;5103387;28;20028;-43
2021/07/27 07:14:04;;;;;;;1.20;1.10;;;24.00;57.50;;;;;;5103150;28;20128;-42
2021/07/27 07:16:30;;;;;;;1.08;0.93;;;24.00;57.30;;;;;;5102677;28;20616;-43
2021/07/27 07:18:57;;;;;;;1.13;1.00;;;24.00;57.50;;;;;;5102553;28;20051;-41
2021/07/27 07:21:23;;;;;;;1.52;0.90;;;23.90;57.40;;;;;;5102724;28;20415;-42
2021/07/27 07:23:49;;;;;;;1.42;1.20;;;23.90;57.50;;;;;;5102374;28;20054;-41
2021/07/27 07:26:15;;;;;;;1.20;1.10;;;23.90;57.50;;;;;;5103119;28;20062;-42
2021/07/27 07:28:41;;;;;;;1.23;1.13;;;23.80;57.50;;;;;;5102376;28;20282;-41
2021/07/27 07:31:10;;;;;;;1.27;1.17;;;23.80;57.50;;;;;;5102255;28;20024;-42
2021/07/27 07:33:36;;;;;;;1.38;1.17;;;23.80;57.60;;;;;;5102706;28;20020;-45
2021/07/27 07:36:12;;;;;;;1.30;1.20;;;23.80;57.60;;;;;;5102683;28;20059;-42
2021/07/27 07:38:39;;;;;;;1.13;1.02;;;23.70;57.60;;;;;;5102817;28;20055;-43
2021/07/27 07:41:09;;;;;;;;;;;23.70;58.20;;;;;;5103003;28;20548;-41
2021/07/27 07:43:36;;;;;;;1.30;1.20;;;23.70;57.70;;;;;;5084441;28;19915;-42
2021/07/27 07:46:02;;;;;;;1.90;1.17;;;23.60;57.60;;;;;;5102791;28;20070;-43
2021/07/27 07:48:28;;;;;;;1.10;1.00;;;23.60;57.70;;;;;;5102317;28;20053;-42
2021/07/27 07:50:54;;;;;;;1.10;1.00;;;23.50;57.60;;;;;;5102712;28;20020;-42
2021/07/27 07:53:20;;;;;;;1.45;1.10;;;23.50;57.70;;;;;;5101990;28;20035;-43
2021/07/27 07:55:46;;;;;;;1.20;1.05;;;23.50;57.70;;;;;;5100335;28;20099;-42
2021/07/27 07:58:13;;;;;;;1.35;1.25;;;23.50;57.70;;;;;;5102407;28;20025;-41
2021/07/27 08:00:41;;;;;;;1.42;1.33;;;23.40;57.60;;;;;;5099193;28;20100;-42
2021/07/27 08:03:07;;;;;;;1.15;1.05;;;23.40;57.60;;;;;;5102563;28;20020;-43
2021/07/27 08:05:33;;;;;;;1.00;0.90;;;23.40;57.80;;;;;;5101388;28;20032;-43
2021/07/27 08:07:59;;;;;;;1.40;1.10;;;23.30;57.60;;;;;;5102427;28;20024;-42
2021/07/27 08:10:26;;;;;;;1.20;1.10;;;23.30;57.70;;;;;;5100927;28;20024;-42
2021/07/27 08:12:52;;;;;;;1.10;0.90;;;23.20;57.80;;;;;;5092197;28;20120;-42
2021/07/27 08:15:24;;;;;;;1.35;1.17;;;23.20;57.80;;;;;;5101441;28;20062;-42
2021/07/27 08:17:50;;;;;;;1.13;1.02;;;23.20;57.70;;;;;;5102316;28;20020;-43
2021/07/27 08:20:16;;;;;;;1.48;1.00;;;23.10;57.70;;;;;;5101458;28;20032;-42
2021/07/27 08:22:42;;;;;;;1.08;0.98;;;23.10;57.70;;;;;;5101937;28;20020;-42
2021/07/27 08:25:15;;;;;;;1.52;1.23;;;23.10;57.70;;;;;;5102153;28;20024;-43
2021/07/27 08:27:42;;;;;;;1.33;1.15;;;23.10;57.80;;;;;;5102093;28;20702;-43
2021/07/27 08:30:08;;;;;;;;;;;23.10;57.70;;;;;;5084072;28;20080;-43
2021/07/27 08:32:34;;;;;;;1.08;0.98;;;23.00;57.80;;;;;;5101951;28;20249;-42
2021/07/27 08:35:01;;;;;;;1.23;1.13;;;23.00;57.80;;;;;;5102061;28;20040;-43
2021/07/27 08:37:27;;;;;;;1.10;0.93;;;23.00;57.90;;;;;;5102216;28;20020;-42
2021/07/27 08:39:59;;;;;;;1.60;1.10;;;22.90;57.80;;;;;;5100981;28;20492;-42
2021/07/27 08:42:26;;;;;;;2.00;1.10;;;22.90;57.80;;;;;;5100930;28;20032;-42
2021/07/27 08:44:52;;;;;;;;;;;22.90;57.80;;;;;;5068196;28;20615;-41
2021/07/27 08:47:18;;;;;;;0.80;0.77;;;22.80;57.70;;;;;;5105212;28;19908;-42
2021/07/27 08:49:45;;;;;;;1.25;1.02;;;22.80;57.80;;;;;;5087439;28;20518;-41
2021/07/27 08:52:11;;;;;;;1.27;1.10;;;22.80;57.80;;;;;;5105063;28;20026;-41
2021/07/27 08:54:39;;;;;;;1.20;1.10;;;22.80;57.90;;;;;;5105495;28;20036;-42
2021/07/27 08:57:11;;;;;;;2.10;1.10;;;22.70;57.90;;;;;;5087319;28;20043;-43
2021/07/27 08:59:37;;;;;;;1.23;1.13;;;22.70;57.90;;;;;;5104770;28;20055;-41
2021/07/27 09:02:04;;;;;;;1.20;1.10;;;22.70;57.90;;;;;;5102778;28;20674;-42
2021/07/27 09:04:30;;;;;;;1.20;0.93;;;22.60;57.90;;;;;;5105341;28;20046;-41
2021/07/27 09:07:00;;;;;;;1.60;1.30;;;22.60;57.90;;;;;;5105649;28;20020;-41
2021/07/27 09:09:30;;;;;;;1.13;1.02;;;22.60;58.00;;;;;;5105437;28;20088;-41
2021/07/27 09:11:57;;;;;;;0.95;0.95;;;22.60;58.00;;;;;;5087037;28;20682;-42
2021/07/27 09:14:23;;;;;;;1.13;1.00;;;22.60;58.00;;;;;;5105329;28;20083;-40
2021/07/27 09:16:51;;;;;;;1.20;1.02;;;22.50;57.90;;;;;;5105296;28;20028;-42
2021/07/27 09:19:17;;;;;;;1.10;0.90;;;22.50;57.90;;;;;;5105163;28;20088;-42
2021/07/27 09:21:43;;;;;;;1.35;1.10;;;22.50;58.00;;;;;;5104816;28;20055;-42
2021/07/27 09:24:30;;;;;;;1.20;1.10;;;22.40;58.00;;;;;;5086915;28;20028;-42
2021/07/27 09:27:03;;;;;;;1.13;1.02;;;22.50;58.20;;;;;;5103120;28;20081;-43
2021/07/27 09:29:29;;;;;;;1.05;0.88;;;22.50;58.70;;;;;;5075220;28;20039;-42
2021/07/27 09:31:58;;;;;;;1.40;1.30;;;22.60;59.00;;;;;;5104857;28;20024;-42
2021/07/27 09:34:30;;;;;;;1.10;1.00;;;22.60;59.70;;;;;;5086007;28;20052;-42
2021/07/27 09:37:14;;;;;;;1.30;1.20;;;22.60;59.60;;;;;;5102307;28;20052;-42
2021/07/27 09:39:40;;;;;;;1.65;1.17;;;22.60;59.70;;;;;;5104290;28;20055;-42
2021/07/27 09:42:08;;;;;;;1.20;1.10;;;22.70;59.90;;;;;;5104883;28;20044;-42
2021/07/27 09:44:36;;;;;;;1.13;1.02;;;22.70;60.00;;;;;;5104205;28;20632;-42
2021/07/27 09:47:03;;;;;;;1.38;1.00;;;22.70;60.10;;;;;;5104647;28;20137;-42
2021/07/27 09:49:29;;;;;;;1.90;1.00;;;22.70;60.20;;;;;;5104499;28;20545;-43
2021/07/27 09:51:58;;;;;;;1.27;1.17;;;22.70;60.30;;;;;;5104558;28;20038;-42
2021/07/27 09:54:25;;;;;;;1.42;1.20;;;22.70;60.40;;;;;;5104295;28;20032;-41
2021/07/27 09:56:52;;;;;;;3.63;1.17;;;22.80;60.50;;;;;;5086232;28;20322;-42
2021/07/27 09:59:19;;;;;;;1.27;1.10;;;22.80;60.60;;;;;;5104476;28;20024;-43
2021/07/27 10:01:52;;;;;;;1.15;1.02;;;22.80;60.60;;;;;;5063708;28;20096;-41
2021/07/27 10:04:26;;;;;;;1.10;0.90;;;22.80;60.70;;;;;;5086802;28;20547;-42
2021/07/27 10:06:52;;;;;;;1.23;1.00;;;22.80;60.80;;;;;;5085789;28;20036;-42
2021/07/27 10:09:25;;;;;;;1.23;1.00;;;22.80;60.90;;;;;;5086325;28;20024;-43
2021/07/27 10:11:52;;;;;;;1.27;1.00;;;22.90;61.10;;;;;;5086484;28;20040;-43
2021/07/27 10:14:18;;;;;;;1.40;1.30;;;22.90;61.10;;;;;;5085880;28;20039;-41
2021/07/27 10:16:45;;;;;;;1.40;1.10;;;22.90;61.20;;;;;;5103833;28;20056;-42
2021/07/27 10:19:15;;;;;;;1.30;1.20;;;22.90;61.30;;;;;;5104653;28;20075;-43
2021/07/27 10:21:42;;;;;;;1.38;1.20;;;22.90;61.40;;;;;;5104377;28;20032;-41
2021/07/27 10:24:23;;;;;;;;;;;22.90;61.50;;;;;;5103216;28;20032;-42
2021/07/27 10:26:49;;;;;;;1.10;0.90;;;22.90;61.50;;;;;;5103675;28;20238;-42
2021/07/27 10:29:27;;;;;;;3.08;1.33;;;22.90;61.60;;;;;;5103071;28;20031;-42
2021/07/27 10:31:54;;;;;;;1.30;1.20;;;22.90;61.70;;;;;;5104361;28;20032;-41
2021/07/27 10:34:20;;;;;;;1.38;1.15;;;22.90;61.70;;;;;;5103964;28;20062;-42
2021/07/27 10:36:47;;;;;;;1.17;1.05;;;22.90;61.80;;;;;;5084899;28;20118;-42
2021/07/27 10:39:19;;;;;;;1.42;1.30;;;22.90;61.80;;;;;;5101468;28;20040;-42
2021/07/27 10:41:47;;;;;;;1.40;1.20;;;22.90;61.80;;;;;;5102916;28;20117;-41
2021/07/27 10:44:20;;;;;;;1.20;1.05;;;22.90;61.80;;;;;;5103796;28;20040;-42
2021/07/27 10:46:48;;;;;;;1.50;1.05;;;23.00;61.90;;;;;;5103067;28;20096;-42
2021/07/27 10:49:19;;;;;;;1.20;1.08;;;23.00;61.90;;;;;;5102937;28;20059;-42
2021/07/27 10:51:46;;;;;;;2.40;1.30;;;23.00;61.90;;;;;;5084995;28;20039;-42
2021/07/27 10:54:16;;;;;;;1.35;1.23;;;23.00;61.90;;;;;;5103056;28;20032;-43
2021/07/27 10:57:02;;;;;;;1.42;1.17;;;23.00;61.90;;;;;;5101989;28;20051;-42
2021/07/27 10:59:45;;;;;;;1.23;1.13;;;23.00;61.90;;;;;;5100306;28;20008;-43
2021/07/27 11:02:12;;;;;;;1.23;1.13;;;23.00;62.00;;;;;;5103409;28;20038;-41
2021/07/27 11:04:38;;;;;;;;;;;23.00;62.00;;;;;;5103652;28;20050;-43
2021/07/27 11:07:15;;;;;;;1.35;1.25;;;23.00;62.00;;;;;;5084560;28;19908;-42
2021/07/27 11:09:51;;;;;;;1.17;1.08;;;23.00;62.20;;;;;;5102077;28;20053;-43
2021/07/27 11:12:34;;;;;;;1.60;1.20;;;23.00;62.20;;;;;;5102787;28;20032;-42
2021/07/27 11:15:19;;;;;;;1.65;1.17;;;23.00;62.30;;;;;;5084691;28;20087;-42
2021/07/27 11:17:50;;;;;;;1.25;1.15;;;23.00;62.30;;;;;;5084870;28;20020;-43
2021/07/27 11:20:20;;;;;;;1.40;1.30;;;23.00;62.40;;;;;;5102961;28;20036;-43
2021/07/27 11:22:57;;;;;;;1.38;1.25;;;23.00;62.50;;;;;;5098938;28;20487;-41
2021/07/27 11:25:24;;;;;;;1.40;1.30;;;23.00;62.50;;;;;;5098970;28;20047;-42
2021/07/27 11:27:51;;;;;;;1.10;1.00;;;23.00;62.50;;;;;;5084538;28;20035;-42
2021/07/27 11:30:18;;;;;;;1.55;1.35;;;23.00;62.50;;;;;;5102372;28;20047;-41
2021/07/27 11:32:51;;;;;;;1.30;1.08;;;23.00;62.50;;;;;;5084691;28;20044;-42
2021/07/27 11:35:22;;;;;;;1.55;1.10;;;23.00;62.50;;;;;;5100068;28;20032;-42
2021/07/27 11:38:09;;;;;;;1.40;1.17;;;23.10;62.60;;;;;;5084431;28;20031;-42
2021/07/27 11:40:35;;;;;;;1.60;1.50;;;23.10;62.70;;;;;;5102033;28;20039;-43
2021/07/27 11:43:11;;;;;;;1.33;1.20;;;23.10;62.70;;;;;;5102270;28;20028;-43
2021/07/27 11:45:39;;;;;;;1.27;0.95;;;23.10;62.70;;;;;;5102527;28;20537;-42
2021/07/27 11:48:06;;;;;;;1.25;1.08;;;23.10;62.70;;;;;;5102359;28;20012;-42
2021/07/27 11:50:33;;;;;;;1.67;1.52;;;23.10;62.70;;;;;;5101964;28;20028;-41
2021/07/27 11:53:01;;;;;;;2.17;1.20;;;23.10;62.70;;;;;;5101957;28;20032;-42
2021/07/27 11:55:36;;;;;;;1.40;1.30;;;23.10;62.90;;;;;;5102179;28;20689;-42
2021/07/27 11:58:03;;;;;;;2.08;1.50;;;23.10;62.90;;;;;;5102347;28;20073;-42
2021/07/27 12:00:31;;;;;;;1.73;1.50;;;23.10;62.90;;;;;;5084093;28;20565;-42
2021/07/27 12:02:57;;;;;;;1.95;1.33;;;23.10;63.00;;;;;;5101611;28;20036;-42
2021/07/27 12:05:23;;;;;;;1.30;1.20;;;23.10;63.00;;;;;;5101980;28;20144;-42
2021/07/27 12:07:49;;;;;;;1.48;1.38;;;23.10;63.10;;;;;;5091167;28;20020;-42
2021/07/27 12:10:15;;;;;;;1.40;1.20;;;23.10;63.10;;;;;;5101992;28;20027;-42
2021/07/27 12:12:44;;;;;;;1.30;1.20;;;23.10;63.10;;;;;;5101640;28;20039;-41
2021/07/27 12:15:15;;;;;;;1.83;1.30;;;23.10;63.20;;;;;;5101972;28;20119;-42
2021/07/27 12:17:42;;;;;;;2.08;1.50;;;23.10;63.20;;;;;;5101447;28;20091;-42
2021/07/27 12:20:10;;;;;;;1.63;1.42;;;23.10;63.10;;;;;;5102765;28;20020;-43
2021/07/27 12:22:36;;;;;;;1.48;1.38;;;23.10;63.10;;;;;;5106636;28;20079;-41
2021/07/27 12:25:03;;;;;;;2.45;1.42;;;23.20;63.30;;;;;;5105983;28;20032;-41
2021/07/27 12:27:29;;;;;;;1.45;1.23;;;23.20;63.30;;;;;;5105851;28;20048;-41
2021/07/27 12:29:56;;;;;;;1.05;0.93;;;23.20;63.20;;;;;;5106465;28;20032;-42
2021/07/27 12:32:22;;;;;;;1.38;1.25;;;23.20;63.30;;;;;;5106344;28;20035;-42
2021/07/27 12:34:50;;;;;;;1.98;1.45;;;23.20;63.30;;;;;;5104128;28;20028;-42
2021/07/27 12:37:19;;;;;;;1.50;1.40;;;23.20;63.20;;;;;;5105074;28;20044;-41
2021/07/27 12:39:46;;;;;;;1.88;1.20;;;23.20;63.20;;;;;;5106052;28;20020;-41
2021/07/27 12:42:13;;;;;;;2.13;1.35;;;23.20;63.20;;;;;;5105402;28;20062;-42
2021/07/27 12:44:39;;;;;;;1.42;1.33;;;23.20;63.20;;;;;;5106097;28;20024;-41
2021/07/27 12:47:06;;;;;;;1.40;1.27;;;23.20;63.20;;;;;;5105036;28;20032;-42
2021/07/27 12:49:32;;;;;;;1.33;1.23;;;23.20;63.20;;;;;;5087799;28;20051;-41
2021/07/27 12:51:58;;;;;;;1.65;1.52;;;23.20;63.30;;;;;;5105479;28;20115;-41
2021/07/27 12:54:24;;;;;;;1.50;1.38;;;23.20;63.40;;;;;;5087412;28;20036;-41
2021/07/27 12:56:50;;;;;;;1.67;1.05;;;23.20;63.40;;;;;;5105221;28;20063;-41
2021/07/27 12:59:16;;;;;;;2.00;1.30;;;23.30;63.40;;;;;;5105179;28;20035;-43
2021/07/27 13:01:43;;;;;;;1.65;1.35;;;23.30;63.50;;;;;;5104692;28;20063;-41
2021/07/27 13:04:09;;;;;;;2.13;1.55;;;23.30;63.40;;;;;;5105383;28;20020;-40
2021/07/27 13:06:35;;;;;;;2.33;1.58;;;23.30;63.40;;;;;;5105088;28;20020;-42
2021/07/27 13:09:02;;;;;;;1.83;1.40;;;23.30;63.50;;;;;;5103995;28;20055;-41
2021/07/27 13:11:28;;;;;;;1.70;1.38;;;23.40;63.40;;;;;;5105574;28;20032;-42
2021/07/27 13:13:54;;;;;;;1.65;1.48;;;23.40;63.50;;;;;;5104743;28;20778;-41
2021/07/27 13:16:21;;;;;;;1.30;1.20;;;23.40;63.50;;;;;;5105225;28;20047;-41
2021/07/27 13:18:47;;;;;;;2.33;1.50;;;23.40;63.50;;;;;;5104964;28;20051;-41